Time;durP1;ratioP1;P1;durP2;ratioP2;P2;SDS_P1;SDS_P2;PMS_P1;PMS_P2;Temp;Humidity;BMP_temperature;BMP_pressure;BME280_temperature;BME280_humidity;BME280_pressure;Samples;Min_cycle;Max_cycle;Signal;HPM_P1;HPM_P2
2023/09/06 00:02:07;;;;;;;6.18;4.55;;;;;;;17.16;64.40;94320.16;5020541;28;20033;-79
2023/09/06 00:04:33;;;;;;;4.93;4.43;;;;;;;17.36;63.89;94329.94;5017140;28;20136;-77
2023/09/06 00:06:59;;;;;;;6.07;4.05;;;;;;;17.24;64.00;94318.47;5018001;28;20489;-77
2023/09/06 00:09:24;;;;;;;7.40;4.43;;;;;;;17.13;64.25;94312.75;5018185;28;20052;-78
2023/09/06 00:11:49;;;;;;;6.63;4.50;;;;;;;17.22;64.22;94329.53;5017098;28;20104;-77
2023/09/06 00:14:15;;;;;;;4.90;4.35;;;;;;;17.33;64.29;94324.47;5018268;28;20029;-77
2023/09/06 00:16:41;;;;;;;7.97;5.07;;;;;;;17.48;63.44;94332.56;5016533;28;20378;-78
2023/09/06 00:19:07;;;;;;;7.22;4.07;;;;;;;17.07;63.62;94276.50;5019665;28;20043;-78
2023/09/06 00:21:36;;;;;;;8.82;4.70;;;;;;;17.31;64.03;94326.69;5019937;28;20385;-78
2023/09/06 00:24:05;;;;;;;4.80;4.30;;;;;;;17.27;63.60;94321.25;5000032;28;20029;-77
2023/09/06 00:26:30;;;;;;;7.57;4.30;;;;;;;17.40;63.64;94330.84;5016867;28;20029;-77
2023/09/06 00:28:57;;;;;;;4.53;3.85;;;;;;;17.41;63.66;94326.22;5018911;28;20029;-77
2023/09/06 00:31:23;;;;;;;4.88;4.18;;;;;;;17.38;63.13;94326.91;5018755;28;20147;-79
2023/09/06 00:33:48;;;;;;;4.78;4.30;;;;;;;17.39;62.83;94317.72;5000155;28;20190;-77
2023/09/06 00:36:14;;;;;;;6.63;4.25;;;;;;;17.48;62.90;94329.09;5018787;28;20489;-77
2023/09/06 00:38:39;;;;;;;10.43;4.97;;;;;;;17.47;62.89;94319.47;5016969;28;20068;-79
2023/09/06 00:41:04;;;;;;;5.20;4.65;;;;;;;17.54;62.74;94316.97;5016594;28;20032;-79
2023/09/06 00:43:30;;;;;;;6.07;5.03;;;;;;;17.38;62.39;94294.66;5017521;28;20021;-77
2023/09/06 00:45:55;;;;;;;7.47;4.53;;;;;;;17.52;62.59;94319.22;5015243;28;20036;-78
2023/09/06 00:48:26;;;;;;;6.20;4.45;;;;;;;17.40;62.65;94298.56;5013823;28;20405;-76
2023/09/06 00:50:56;;;;;;;6.03;4.65;;;;;;;17.54;62.32;94319.66;5019732;28;20864;-78
2023/09/06 00:53:25;;;;;;;4.70;4.28;;;;;;;17.47;62.32;94297.97;5017566;28;20527;-78
2023/09/06 00:55:50;;;;;;;6.05;4.13;;;;;;;17.55;62.10;94305.09;5012667;28;20849;-78
2023/09/06 00:58:18;;;;;;;6.78;5.20;;;;;;;17.23;62.32;94280.03;5000384;28;20044;-79
2023/09/06 01:00:48;;;;;;;4.93;4.32;;;;;;;17.40;62.38;94298.56;4990963;28;20083;-77
2023/09/06 01:03:15;;;;;;;11.07;4.95;;;;;;;17.42;62.48;94298.22;5017841;28;20128;-79
2023/09/06 01:06:03;;;;;;;6.30;4.68;;;;;;;17.44;62.43;94306.72;5018411;28;20109;-78
2023/09/06 01:08:46;;;;;;;8.05;4.50;;;;;;;17.53;62.39;94296.59;5017170;28;20071;-78
2023/09/06 01:11:20;;;;;;;5.13;4.60;;;;;;;17.50;62.14;94308.81;5016228;28;20485;-77
2023/09/06 01:13:47;;;;;;;;;;;;;;;17.59;61.67;94305.97;5017699;28;20067;-79
2023/09/06 01:16:15;;;;;;;7.07;4.85;;;;;;;17.52;61.79;94308.47;4993049;28;19917;-77
2023/09/06 01:18:42;;;;;;;5.75;4.70;;;;;;;17.52;61.46;94295.00;5016768;28;20033;-78
2023/09/06 01:21:11;;;;;;;8.18;4.82;;;;;;;17.59;61.46;94300.59;5017964;28;20570;-77
2023/09/06 01:23:42;;;;;;;5.55;4.00;;;;;;;17.65;61.53;94304.56;5017448;28;20029;-78
2023/09/06 01:26:08;;;;;;;4.78;4.30;;;;;;;17.50;61.65;94283.84;4999578;28;20059;-78
2023/09/06 01:28:34;;;;;;;6.25;4.63;;;;;;;17.64;61.78;94297.66;5016692;28;20030;-78
2023/09/06 01:31:00;;;;;;;5.60;5.05;;;;;;;17.55;61.58;94286.28;5001286;28;20047;-77
2023/09/06 01:33:28;;;;;;;5.07;4.57;;;;;;;17.52;60.98;94285.03;4992189;28;20033;-77
2023/09/06 01:35:54;;;;;;;6.90;4.60;;;;;;;17.47;61.14;94277.22;5018656;28;20060;-79
2023/09/06 01:38:19;;;;;;;5.43;4.85;;;;;;;17.50;61.07;94286.53;5015241;28;20056;-78
2023/09/06 01:40:45;;;;;;;6.22;4.70;;;;;;;17.44;61.44;94304.03;5018092;28;20624;-80
2023/09/06 01:43:11;;;;;;;6.18;4.35;;;;;;;17.46;61.33;94299.06;5015623;28;20535;-78
2023/09/06 01:45:38;;;;;;;6.60;5.13;;;;;;;17.49;60.94;94299.19;5017740;28;20427;-77
2023/09/06 01:48:04;;;;;;;10.50;4.93;;;;;;;17.41;61.32;94288.56;4992341;28;20033;-78
2023/09/06 01:50:30;;;;;;;7.13;4.63;;;;;;;17.43;61.09;94280.94;5000309;28;20085;-78
2023/09/06 01:52:55;;;;;;;8.23;6.03;;;;;;;17.40;61.41;94297.78;5016288;28;20543;-77
2023/09/06 01:55:21;;;;;;;14.52;5.22;;;;;;;17.48;61.03;94288.78;5001101;28;20021;-78
2023/09/06 01:57:47;;;;;;;6.38;5.60;;;;;;;17.44;60.72;94274.47;5016396;28;20044;-78
2023/09/06 02:00:19;;;;;;;6.97;4.63;;;;;;;17.49;60.90;94287.66;5018630;28;20041;-78
2023/09/06 02:02:46;;;;;;;10.73;5.20;;;;;;;17.35;60.99;94271.16;4999215;28;20489;-79
2023/09/06 02:05:12;;;;;;;7.47;5.97;;;;;;;17.23;61.14;94280.03;5016714;28;20041;-79
2023/09/06 02:07:37;;;;;;;8.20;5.50;;;;;;;17.35;61.20;94292.66;5016489;28;20026;-77
2023/09/06 02:10:03;;;;;;;7.25;4.60;;;;;;;17.24;60.99;94284.31;5018138;28;20033;-77
2023/09/06 02:12:29;;;;;;;7.45;4.63;;;;;;;17.31;60.94;94281.00;5014878;28;20101;-79
2023/09/06 02:14:56;;;;;;;6.25;4.72;;;;;;;17.56;60.42;94290.50;5016943;28;20037;-78
2023/09/06 02:17:27;;;;;;;6.32;5.00;;;;;;;17.49;60.50;94274.19;4999773;28;20083;-76
2023/09/06 02:19:52;;;;;;;7.90;5.95;;;;;;;17.35;60.87;94269.25;5014594;28;20082;-78
2023/09/06 02:22:18;;;;;;;8.20;5.25;;;;;;;17.47;60.79;94273.75;5016099;28;20025;-79
2023/09/06 02:24:43;;;;;;;5.55;4.70;;;;;;;17.48;60.74;94275.31;5016318;28;20075;-78
2023/09/06 02:27:12;;;;;;;7.95;6.72;;;;;;;17.59;60.58;94296.00;4992180;28;20519;-77
2023/09/06 02:29:38;;;;;;;7.72;4.95;;;;;;;17.58;60.62;94288.25;5015214;28;20038;-78
2023/09/06 02:32:04;;;;;;;7.57;4.63;;;;;;;17.52;60.39;94276.19;5017456;28;20369;-78
2023/09/06 02:34:29;;;;;;;8.70;5.50;;;;;;;17.49;60.48;94298.41;5015611;28;20107;-78
2023/09/06 02:36:56;;;;;;;7.75;4.60;;;;;;;17.38;60.48;94279.31;5016889;28;20037;-78
2023/09/06 02:39:22;;;;;;;6.72;5.55;;;;;;;17.11;60.80;94293.53;5016349;28;20033;-78
2023/09/06 02:41:47;;;;;;;11.43;5.22;;;;;;;17.20;60.57;94282.66;5014872;28;20518;-77
2023/09/06 02:44:13;;;;;;;5.65;4.97;;;;;;;17.12;60.45;94279.72;5016577;28;20029;-77
2023/09/06 02:46:38;;;;;;;5.63;4.75;;;;;;;17.04;60.94;94296.78;5016733;28;20492;-79
2023/09/06 02:49:11;;;;;;;8.68;4.85;;;;;;;17.05;60.56;94279.53;5015068;28;20034;-78
2023/09/06 02:51:43;;;;;;;7.82;5.63;;;;;;;17.02;60.36;94282.91;5015732;28;20029;-77
2023/09/06 02:54:12;;;;;;;9.30;5.28;;;;;;;17.15;60.41;94284.47;5013648;28;20052;-78
2023/09/06 02:56:38;;;;;;;9.57;5.28;;;;;;;16.93;60.32;94268.84;5016100;28;20053;-77
2023/09/06 02:59:12;;;;;;;9.13;5.20;;;;;;;17.25;59.71;94295.84;5015353;28;20571;-77
2023/09/06 03:01:44;;;;;;;5.38;4.88;;;;;;;17.10;59.69;94279.31;4992304;28;20041;-77
2023/09/06 03:04:13;;;;;;;6.82;5.28;;;;;;;17.24;59.90;94299.66;5016186;28;20033;-77
2023/09/06 03:06:38;;;;;;;7.18;4.68;;;;;;;17.38;59.93;94300.81;5016795;28;20033;-77
2023/09/06 03:09:06;;;;;;;9.98;5.65;;;;;;;17.34;59.43;94278.44;5001981;28;20037;-78
2023/09/06 03:11:32;;;;;;;7.18;5.68;;;;;;;17.41;59.56;94296.63;5001567;28;20063;-78
2023/09/06 03:13:58;;;;;;;7.88;4.80;;;;;;;17.39;59.26;94298.91;5017856;28;20029;-77
2023/09/06 03:16:23;;;;;;;7.35;5.70;;;;;;;17.40;59.11;94295.09;5021365;28;20513;-78
2023/09/06 03:18:49;;;;;;;5.65;4.93;;;;;;;17.31;59.37;94295.22;5001087;28;20603;-78
2023/09/06 03:21:17;;;;;;;5.95;5.25;;;;;;;17.23;59.25;94271.19;5021162;28;20037;-78
2023/09/06 03:23:44;;;;;;;7.50;5.40;;;;;;;17.33;59.40;94292.22;5001860;28;20413;-77
2023/09/06 03:26:10;;;;;;;6.78;4.47;;;;;;;17.39;58.98;94278.19;5001077;28;20033;-78
2023/09/06 03:28:41;;;;;;;7.82;4.95;;;;;;;17.35;59.01;94295.34;5004322;28;20701;-79
2023/09/06 03:31:12;;;;;;;10.23;6.18;;;;;;;17.45;58.91;94295.59;5019382;28;20843;-80
2023/09/06 03:33:41;;;;;;;7.72;4.70;;;;;;;17.33;59.06;94305.66;5021325;28;20064;-77
2023/09/06 03:36:09;;;;;;;7.63;5.13;;;;;;;17.21;59.80;94292.28;5019678;28;20034;-79
2023/09/06 03:38:36;;;;;;;9.02;5.15;;;;;;;17.46;59.20;94301.75;5019262;28;20049;-76
2023/09/06 03:41:02;;;;;;;8.05;5.22;;;;;;;17.35;59.13;94306.88;5019291;28;20033;-77
2023/09/06 03:43:32;;;;;;;6.63;5.45;;;;;;;17.25;59.31;94301.22;5018559;28;20025;-79
2023/09/06 03:45:59;;;;;;;6.47;5.88;;;;;;;17.13;59.68;94293.94;5017698;28;20132;-78
2023/09/06 03:48:27;;;;;;;12.48;5.80;;;;;;;17.41;59.71;94304.69;5019003;28;20030;-79
2023/09/06 03:51:01;;;;;;;6.30;5.18;;;;;;;17.57;58.84;94297.47;5017917;28;20060;-77
2023/09/06 03:53:27;;;;;;;5.55;4.78;;;;;;;17.59;58.30;94289.84;5020857;28;20498;-77
2023/09/06 03:55:57;;;;;;;8.18;5.75;;;;;;;17.57;58.01;94302.84;5015767;28;20083;-78
2023/09/06 03:58:23;;;;;;;9.68;5.00;;;;;;;17.44;58.66;94317.47;5021339;28;20401;-78
2023/09/06 04:00:51;;;;;;;6.40;5.78;;;;;;;17.31;58.94;94315.94;5016167;28;20517;-78
2023/09/06 04:03:18;;;;;;;7.50;5.85;;;;;;;17.45;58.61;94317.13;5019844;28;20068;-78
2023/09/06 04:05:45;;;;;;;9.18;5.95;;;;;;;17.34;58.49;94320.66;5019311;28;20386;-77
2023/09/06 04:08:11;;;;;;;13.80;5.28;;;;;;;17.42;57.86;94319.72;5018027;28;20100;-78
2023/09/06 04:10:37;;;;;;;6.32;4.57;;;;;;;17.37;58.30;94333.41;5016704;28;20508;-77
2023/09/06 04:13:09;;;;;;;5.95;5.35;;;;;;;17.45;58.22;94327.13;5020009;28;20045;-80
2023/09/06 04:15:36;;;;;;;6.25;4.63;;;;;;;17.38;58.38;94322.31;5015626;28;20458;-78
2023/09/06 04:18:07;;;;;;;14.90;6.13;;;;;;;17.52;58.27;94322.69;5019441;28;20088;-78
2023/09/06 04:20:37;;;;;;;9.02;5.18;;;;;;;17.67;57.65;94326.53;4995220;28;20116;-79
2023/09/06 04:23:07;;;;;;;10.30;5.68;;;;;;;17.79;57.28;94323.00;5018618;28;20029;-77
2023/09/06 04:25:41;;;;;;;7.18;5.78;;;;;;;17.63;57.05;94322.97;5021265;28;20053;-77
2023/09/06 04:28:07;;;;;;;9.45;5.07;;;;;;;17.81;57.12;94334.19;5016767;28;20159;-78
2023/09/06 04:30:36;;;;;;;6.72;5.88;;;;;;;17.71;57.14;94330.09;5017802;28;20040;-78
2023/09/06 04:33:03;;;;;;;6.35;5.47;;;;;;;17.64;57.63;94339.91;5016635;28;20075;-80
2023/09/06 04:35:48;;;;;;;8.88;5.20;;;;;;;17.83;58.05;94346.19;5018881;28;20174;-77
2023/09/06 04:38:14;;;;;;;;;;;;;;;17.75;57.88;94341.72;5018392;28;20148;-78
2023/09/06 04:40:43;;;;;;;6.78;5.18;;;;;;;17.74;57.64;94342.88;5002053;28;19916;-76
2023/09/06 04:43:09;;;;;;;6.75;5.38;;;;;;;17.75;57.66;94352.47;4998503;28;20057;-77
2023/09/06 04:45:37;;;;;;;7.25;5.10;;;;;;;17.78;57.02;94346.44;5017707;28;20529;-78
2023/09/06 04:48:10;;;;;;;6.32;5.35;;;;;;;17.93;56.86;94337.63;5017897;28;20444;-78
2023/09/06 04:50:40;;;;;;;6.00;4.93;;;;;;;17.94;57.01;94333.03;5001058;28;20418;-77
2023/09/06 04:53:08;;;;;;;8.63;5.75;;;;;;;17.98;56.70;94336.59;4999621;28;20045;-77
2023/09/06 04:55:35;;;;;;;6.95;4.85;;;;;;;18.09;56.88;94347.63;4992428;28;20413;-78
2023/09/06 04:58:07;;;;;;;7.47;5.85;;;;;;;18.02;57.17;94348.22;5001392;28;20041;-76
2023/09/06 05:00:37;;;;;;;7.53;5.25;;;;;;;18.00;56.76;94353.94;5016546;28;20041;-76
2023/09/06 05:03:04;;;;;;;7.60;5.68;;;;;;;17.95;56.64;94348.03;5014757;28;20554;-76
2023/09/06 05:05:30;;;;;;;6.07;5.15;;;;;;;18.08;56.70;94354.13;5018607;28;20281;-78
2023/09/06 05:07:56;;;;;;;9.88;6.32;;;;;;;18.07;56.54;94349.88;5003241;28;20076;-77
2023/09/06 05:10:21;;;;;;;5.68;4.80;;;;;;;18.06;56.71;94351.78;5020418;28;20037;-79
2023/09/06 05:12:47;;;;;;;9.60;5.47;;;;;;;17.90;56.84;94354.41;5018482;28;20030;-78
2023/09/06 05:15:13;;;;;;;8.18;5.65;;;;;;;18.04;56.66;94354.00;4999070;28;20029;-76
2023/09/06 05:17:41;;;;;;;7.28;5.18;;;;;;;18.06;56.56;94356.38;5020595;28;20040;-79
2023/09/06 05:20:24;;;;;;;7.70;6.10;;;;;;;18.06;56.27;94349.09;5016111;28;20142;-78
2023/09/06 05:22:49;;;;;;;8.85;5.47;;;;;;;18.06;56.39;94353.69;5017371;28;20029;-79
2023/09/06 05:25:14;;;;;;;6.80;5.13;;;;;;;17.86;55.67;94342.78;5013901;28;20034;-77
2023/09/06 05:27:40;;;;;;;8.93;5.88;;;;;;;17.59;56.65;94346.31;5008014;28;20722;-76
2023/09/06 05:30:06;;;;;;;6.15;5.00;;;;;;;17.89;56.45;94366.31;5013864;28;20041;-76
2023/09/06 05:32:31;;;;;;;6.95;5.07;;;;;;;17.86;55.90;94364.31;5013684;28;20044;-76
2023/09/06 05:34:56;;;;;;;6.47;4.88;;;;;;;17.56;56.75;94363.13;5014030;28;20456;-77
2023/09/06 05:37:24;;;;;;;8.63;5.30;;;;;;;17.86;56.32;94358.94;5015021;28;20021;-76
2023/09/06 05:39:50;;;;;;;9.45;5.03;;;;;;;17.85;56.39;94356.56;5013974;28;20064;-77
2023/09/06 05:42:16;;;;;;;8.60;5.38;;;;;;;17.85;55.59;94340.44;5011682;28;20041;-75
2023/09/06 05:44:41;;;;;;;6.95;4.88;;;;;;;17.93;55.68;94359.16;5016589;28;20033;-77
2023/09/06 05:47:06;;;;;;;6.32;4.57;;;;;;;17.81;55.75;94367.25;5014287;28;20025;-77
2023/09/06 05:49:32;;;;;;;5.10;4.43;;;;;;;17.70;56.11;94355.44;5015679;28;20131;-77
2023/09/06 05:51:57;;;;;;;6.40;4.50;;;;;;;17.38;56.85;94369.94;5016593;28;20047;-76
2023/09/06 05:54:23;;;;;;;6.82;4.78;;;;;;;17.36;56.57;94358.72;5015464;28;20146;-77
2023/09/06 05:56:48;;;;;;;5.00;3.85;;;;;;;17.68;57.23;94376.53;5015233;28;20042;-78
2023/09/06 05:59:14;;;;;;;72.28;8.25;;;;;;;17.81;56.50;94369.94;5014913;28;20049;-79
2023/09/06 06:01:40;;;;;;;5.70;4.90;;;;;;;17.79;56.19;94371.44;5016477;28;20033;-77
2023/09/06 06:04:06;;;;;;;6.97;4.38;;;;;;;17.73;55.54;94376.28;5015914;28;20046;-76
2023/09/06 06:06:31;;;;;;;13.15;5.68;;;;;;;17.81;55.68;94377.22;5016753;28;20575;-77
2023/09/06 06:08:57;;;;;;;7.10;4.70;;;;;;;17.73;55.68;94378.97;4998578;28;20103;-77
2023/09/06 06:11:22;;;;;;;8.52;4.65;;;;;;;17.71;55.67;94388.50;5017619;28;20132;-78
2023/09/06 06:13:48;;;;;;;9.30;4.68;;;;;;;17.72;55.81;94395.44;4996766;28;20453;-77
2023/09/06 06:16:14;;;;;;;6.13;4.57;;;;;;;17.77;55.32;94384.44;5016346;28;20507;-77
2023/09/06 06:18:40;;;;;;;8.10;4.30;;;;;;;17.84;54.93;94398.09;5014334;28;20792;-77
2023/09/06 06:21:05;;;;;;;7.68;4.40;;;;;;;17.65;55.59;94397.97;4999426;28;20098;-79
2023/09/06 06:23:31;;;;;;;7.53;4.35;;;;;;;17.80;55.57;94392.59;5016397;28;20033;-78
2023/09/06 06:25:57;;;;;;;6.13;5.13;;;;;;;17.57;55.23;94394.28;5016622;28;20055;-79
2023/09/06 06:28:22;;;;;;;8.85;4.65;;;;;;;17.64;55.70;94402.56;4997063;28;20033;-79
2023/09/06 06:30:48;;;;;;;5.63;4.90;;;;;;;17.76;55.52;94407.84;5015394;28;20037;-77
2023/09/06 06:33:13;;;;;;;6.22;4.78;;;;;;;17.71;55.81;94410.78;5015448;28;20041;-78
2023/09/06 06:35:40;;;;;;;11.23;5.85;;;;;;;17.69;55.79;94412.28;4996882;28;20867;-77
2023/09/06 06:38:05;;;;;;;5.85;4.32;;;;;;;17.76;56.17;94418.63;5014765;28;20018;-78
2023/09/06 06:40:35;;;;;;;8.82;4.63;;;;;;;17.83;56.18;94402.69;5017478;28;20025;-78
2023/09/06 06:43:00;;;;;;;8.13;5.15;;;;;;;17.92;55.53;94406.00;4992406;28;20429;-78
2023/09/06 06:45:26;;;;;;;7.47;5.20;;;;;;;17.85;55.82;94405.78;4996867;28;20501;-77
2023/09/06 06:47:52;;;;;;;9.57;5.15;;;;;;;18.07;55.43;94436.00;5013255;28;20651;-78
2023/09/06 06:50:19;;;;;;;8.43;5.40;;;;;;;18.06;55.13;94431.72;5014096;28;20125;-80
2023/09/06 06:52:44;;;;;;;12.43;5.00;;;;;;;18.17;54.89;94432.81;5013041;28;20040;-80
2023/09/06 06:55:10;;;;;;;8.85;4.90;;;;;;;18.18;54.92;94418.22;5012648;28;20033;-79
2023/09/06 06:57:36;;;;;;;7.65;4.80;;;;;;;18.20;54.71;94432.09;5011981;28;20064;-80
2023/09/06 07:00:10;;;;;;;8.25;5.13;;;;;;;17.98;54.87;94410.03;5016555;28;20041;-79
2023/09/06 07:02:36;;;;;;;13.43;5.70;;;;;;;18.06;55.49;94434.44;4995339;28;20493;-78
2023/09/06 07:05:02;;;;;;;8.55;5.07;;;;;;;17.88;55.04;94421.25;4995652;28;20068;-79
2023/09/06 07:07:27;;;;;;;7.32;5.57;;;;;;;18.08;54.77;94424.09;5015994;28;20033;-77
2023/09/06 07:09:53;;;;;;;6.93;5.03;;;;;;;18.24;54.55;94422.19;5015805;28;20053;-80
2023/09/06 07:12:18;;;;;;;10.57;5.30;;;;;;;18.46;54.45;94430.47;5013527;28;20044;-79
2023/09/06 07:14:44;;;;;;;8.93;5.22;;;;;;;18.54;54.15;94425.25;5015645;28;20041;-78
2023/09/06 07:17:10;;;;;;;9.15;5.30;;;;;;;18.65;54.18;94434.38;5011651;28;20122;-79
2023/09/06 07:19:36;;;;;;;16.55;6.40;;;;;;;18.49;53.65;94420.91;5013485;28;20148;-80
2023/09/06 07:22:03;;;;;;;11.00;6.13;;;;;;;18.42;54.05;94424.22;5016435;28;20065;-78
2023/09/06 07:24:28;;;;;;;18.92;5.95;;;;;;;18.33;53.76;94415.50;5014094;28;20068;-77
2023/09/06 07:26:54;;;;;;;9.57;6.47;;;;;;;18.23;53.51;94415.28;5015558;28;20557;-78
2023/09/06 07:29:19;;;;;;;8.95;6.00;;;;;;;18.38;53.79;94404.47;5012855;28;20041;-79
2023/09/06 07:31:45;;;;;;;8.63;6.35;;;;;;;17.91;54.40;94371.34;5016492;28;20028;-79
2023/09/06 07:34:10;;;;;;;13.48;6.13;;;;;;;17.92;54.99;94416.75;5014494;28;20584;-77
2023/09/06 07:36:36;;;;;;;7.13;5.82;;;;;;;18.19;54.14;94404.38;5014556;28;20056;-79
2023/09/06 07:39:04;;;;;;;8.93;5.47;;;;;;;18.15;53.93;94408.91;5015629;28;20046;-78
2023/09/06 07:41:29;;;;;;;9.75;6.07;;;;;;;18.09;54.84;94396.06;4997066;28;20038;-77
2023/09/06 07:43:55;;;;;;;6.75;5.70;;;;;;;17.80;55.18;94397.97;4996540;28;20029;-79
2023/09/06 07:46:24;;;;;;;7.35;5.80;;;;;;;17.69;55.77;94375.41;5014274;28;20427;-77
2023/09/06 07:48:51;;;;;;;7.75;5.93;;;;;;;17.87;56.28;94400.88;4997523;28;20228;-78
2023/09/06 07:51:16;;;;;;;11.52;6.03;;;;;;;17.84;56.05;94392.69;5015878;28;20036;-78
2023/09/06 07:53:43;;;;;;;16.38;6.88;;;;;;;18.12;56.39;94392.69;5012951;28;20049;-77
2023/09/06 07:56:08;;;;;;;18.02;5.30;;;;;;;18.04;54.59;94372.84;5017948;28;20622;-78
2023/09/06 07:58:34;;;;;;;7.53;5.97;;;;;;;17.83;55.05;94386.53;5018879;28;20075;-78
2023/09/06 08:00:59;;;;;;;9.35;7.22;;;;;;;17.93;55.70;94386.06;5018607;28;20116;-78
2023/09/06 08:03:26;;;;;;;10.15;6.38;;;;;;;18.24;55.87;94390.66;5017511;28;20504;-77
2023/09/06 08:05:51;;;;;;;7.22;5.50;;;;;;;18.26;54.44;94393.81;5018374;28;20401;-79
2023/09/06 08:08:17;;;;;;;6.25;5.32;;;;;;;18.12;54.03;94398.06;5019334;28;20042;-77
2023/09/06 08:10:43;;;;;;;11.63;5.75;;;;;;;18.07;54.16;94391.03;5015390;28;20032;-80
2023/09/06 08:13:09;;;;;;;18.30;7.00;;;;;;;18.29;55.10;94398.50;5018856;28;20036;-78
2023/09/06 08:15:35;;;;;;;6.57;5.50;;;;;;;18.34;54.78;94406.31;5017633;28;20057;-79
2023/09/06 08:18:05;;;;;;;8.38;5.50;;;;;;;18.55;53.77;94406.06;5019364;28;20044;-78
2023/09/06 08:20:31;;;;;;;8.52;5.72;;;;;;;18.26;53.68;94390.34;5015933;28;20145;-78
2023/09/06 08:22:57;;;;;;;8.38;5.88;;;;;;;18.57;53.55;94406.50;5017812;28;20033;-78
2023/09/06 08:25:23;;;;;;;7.32;6.15;;;;;;;18.60;53.96;94413.88;5020729;28;20154;-78
2023/09/06 08:27:50;;;;;;;9.20;5.88;;;;;;;18.47;53.48;94398.94;5016490;28;20038;-77
2023/09/06 08:30:17;;;;;;;11.00;6.72;;;;;;;18.51;53.21;94399.81;5017011;28;20393;-77
2023/09/06 08:32:45;;;;;;;11.10;6.43;;;;;;;18.57;53.75;94409.19;5016228;28;20029;-77
2023/09/06 08:35:14;;;;;;;16.23;7.55;;;;;;;18.82;53.08;94410.56;5013812;28;20021;-77
2023/09/06 08:37:40;;;;;;;8.88;6.13;;;;;;;18.70;53.75;94407.16;5000914;28;20466;-77
2023/09/06 08:40:06;;;;;;;13.52;6.60;;;;;;;19.03;53.74;94415.66;5017602;28;20459;-78
2023/09/06 08:42:33;;;;;;;9.73;6.28;;;;;;;19.05;52.85;94412.63;5017174;28;20484;-78
2023/09/06 08:45:01;;;;;;;23.73;7.85;;;;;;;19.03;53.12;94414.88;5018050;28;20052;-77
2023/09/06 08:47:28;;;;;;;19.33;6.50;;;;;;;19.12;53.09;94396.56;5015639;28;20368;-76
2023/09/06 08:49:54;;;;;;;9.70;6.22;;;;;;;19.17;53.00;94410.56;4998837;28;20033;-79
2023/09/06 08:52:19;;;;;;;13.25;7.03;;;;;;;18.93;53.49;94386.53;4998917;28;20292;-78
2023/09/06 08:54:46;;;;;;;9.40;6.30;;;;;;;19.02;52.88;94397.16;5017343;28;20057;-76
2023/09/06 08:57:13;;;;;;;18.77;7.40;;;;;;;18.96;53.34;94393.16;5016358;28;20429;-78
2023/09/06 08:59:39;;;;;;;10.82;6.57;;;;;;;18.88;53.23;94393.00;5000248;28;20156;-77
2023/09/06 09:02:05;;;;;;;9.93;6.43;;;;;;;19.06;52.93;94406.09;5016588;28;20821;-77
2023/09/06 09:04:31;;;;;;;8.63;5.95;;;;;;;18.76;53.42;94398.50;5015647;28;20390;-77
2023/09/06 09:06:57;;;;;;;10.70;6.03;;;;;;;18.78;53.00;94387.34;5016772;28;20140;-77
2023/09/06 09:09:24;;;;;;;12.90;6.13;;;;;;;18.88;53.38;94403.78;5016401;28;20041;-77
2023/09/06 09:11:51;;;;;;;8.43;5.38;;;;;;;18.82;53.44;94390.94;4990725;28;20076;-76
2023/09/06 09:14:24;;;;;;;8.73;6.47;;;;;;;19.24;53.25;94402.63;5011919;28;20030;-76
2023/09/06 09:17:08;;;;;;;9.18;5.95;;;;;;;19.44;51.97;94402.66;5014053;28;20111;-79
2023/09/06 09:19:33;;;;;;;11.38;6.70;;;;;;;19.01;52.22;94417.16;5014250;28;20547;-76
2023/09/06 09:21:59;;;;;;;7.80;5.68;;;;;;;18.70;52.72;94407.16;5016182;28;20045;-77
2023/09/06 09:24:29;;;;;;;7.80;5.55;;;;;;;18.87;52.63;94418.38;5014136;28;20049;-76
2023/09/06 09:26:58;;;;;;;9.93;6.38;;;;;;;18.99;52.64;94419.41;5007645;28;20041;-78
2023/09/06 09:29:23;;;;;;;10.30;5.95;;;;;;;19.09;52.06;94411.56;4992262;28;20041;-76
2023/09/06 09:31:49;;;;;;;12.32;6.78;;;;;;;19.24;52.31;94404.56;5011464;28;20027;-79
2023/09/06 09:34:14;;;;;;;11.88;7.15;;;;;;;19.25;52.42;94396.13;5007117;28;20071;-78
2023/09/06 09:36:50;;;;;;;7.55;5.72;;;;;;;19.37;52.90;94416.75;5014481;28;20038;-79
2023/09/06 09:39:18;;;;;;;7.05;5.50;;;;;;;19.51;51.67;94416.31;5013601;28;20053;-79
2023/09/06 09:41:44;;;;;;;12.80;7.28;;;;;;;19.25;51.67;94411.50;5012876;28;20114;-78
2023/09/06 09:44:13;;;;;;;6.75;5.68;;;;;;;19.37;51.88;94414.06;5009800;28;20036;-77
2023/09/06 09:46:42;;;;;;;11.25;6.07;;;;;;;19.47;52.48;94421.63;5013299;28;20448;-77
2023/09/06 09:49:10;;;;;;;7.22;5.40;;;;;;;19.68;51.96;94413.97;5016443;28;20049;-79
2023/09/06 09:51:37;;;;;;;8.77;6.55;;;;;;;19.82;51.93;94412.69;4992211;28;20037;-78
2023/09/06 09:54:07;;;;;;;6.95;6.18;;;;;;;19.97;50.28;94415.28;5016008;28;20124;-77
2023/09/06 09:56:33;;;;;;;8.82;6.93;;;;;;;19.95;50.45;94419.47;5014908;28;20144;-79
2023/09/06 09:59:03;;;;;;;10.52;6.38;;;;;;;19.89;50.49;94407.44;4999273;28;20040;-79
2023/09/06 10:01:31;;;;;;;7.47;6.35;;;;;;;19.98;50.67;94421.47;4992072;28;20030;-79
2023/09/06 10:03:58;;;;;;;6.93;6.13;;;;;;;19.77;50.38;94402.16;4998859;28;20112;-77
2023/09/06 10:06:26;;;;;;;7.00;6.35;;;;;;;19.91;50.03;94405.91;4999773;28;20664;-78
2023/09/06 10:08:56;;;;;;;13.07;6.97;;;;;;;20.24;50.43;94426.97;5018006;28;20041;-79
2023/09/06 10:11:21;;;;;;;8.35;6.35;;;;;;;20.20;49.11;94415.34;5010536;28;20606;-79
2023/09/06 10:13:51;;;;;;;9.07;7.15;;;;;;;20.17;49.64;94419.56;4998142;28;20623;-80
2023/09/06 10:16:18;;;;;;;11.73;6.88;;;;;;;20.20;49.13;94419.94;5011167;28;20041;-80
2023/09/06 10:18:44;;;;;;;8.75;6.70;;;;;;;20.41;49.01;94420.34;4993917;28;20061;-79
2023/09/06 10:21:12;;;;;;;7.43;6.55;;;;;;;20.33;49.31;94408.63;5018001;28;20124;-78
2023/09/06 10:23:41;;;;;;;7.38;6.65;;;;;;;20.26;49.23;94405.81;4995650;28;20029;-78
2023/09/06 10:26:06;;;;;;;8.35;6.28;;;;;;;20.45;49.50;94403.03;5015402;28;20385;-79
2023/09/06 10:28:32;;;;;;;7.78;6.43;;;;;;;20.28;49.77;94403.53;5015303;28;20083;-79
2023/09/06 10:31:07;;;;;;;9.48;6.25;;;;;;;20.27;49.21;94399.28;5014614;28;20064;-78
2023/09/06 10:33:35;;;;;;;11.20;6.93;;;;;;;20.12;49.44;94406.31;5011978;28;20363;-80
2023/09/06 10:36:13;;;;;;;14.32;7.95;;;;;;;20.37;49.01;94401.38;5015986;28;20473;-79
2023/09/06 10:38:58;;;;;;;12.27;6.55;;;;;;;20.21;48.99;94403.41;5014014;28;20048;-79
2023/09/06 10:41:26;;;;;;;10.00;6.78;;;;;;;20.26;49.70;94386.91;4998786;28;20049;-80
2023/09/06 10:43:59;;;;;;;12.93;7.32;;;;;;;20.60;48.60;94399.44;5014400;28;20087;-77
2023/09/06 10:46:34;;;;;;;12.40;6.72;;;;;;;20.65;47.98;94400.25;4994734;28;20405;-77
2023/09/06 10:49:12;;;;;;;9.90;7.30;;;;;;;20.78;46.90;94383.47;5012942;28;20910;-79
2023/09/06 10:52:00;;;;;;;14.63;7.15;;;;;;;20.71;47.05;94390.72;4998601;28;20095;-80
2023/09/06 10:54:34;;;;;;;8.70;6.90;;;;;;;20.57;47.71;94383.94;5012373;28;20076;-78
2023/09/06 10:57:02;;;;;;;12.73;6.90;;;;;;;20.63;47.24;94376.28;5011915;28;20452;-78
2023/09/06 10:59:28;;;;;;;13.48;7.93;;;;;;;20.81;46.72;94366.53;5008114;28;20207;-78
2023/09/06 11:02:08;;;;;;;9.38;7.30;;;;;;;20.84;45.68;94387.44;5008735;28;20037;-78
2023/09/06 11:04:34;;;;;;;12.38;8.18;;;;;;;20.44;46.48;94363.66;4997196;28;20041;-76
2023/09/06 11:06:59;;;;;;;10.38;7.32;;;;;;;20.73;46.11;94380.31;5015915;28;20048;-77
2023/09/06 11:09:26;;;;;;;12.70;7.10;;;;;;;20.44;46.47;94362.88;5015777;28;20072;-78
2023/09/06 11:11:52;;;;;;;14.20;8.23;;;;;;;20.44;46.15;94379.06;5014696;28;20033;-78
2023/09/06 11:14:17;;;;;;;11.32;7.85;;;;;;;20.42;46.73;94360.53;5016556;28;20120;-79
2023/09/06 11:16:46;;;;;;;10.75;7.57;;;;;;;20.65;47.16;94368.63;5015906;28;20029;-78
2023/09/06 11:19:12;;;;;;;8.82;7.50;;;;;;;20.47;46.30;94373.75;4998944;28;20026;-77
2023/09/06 11:21:38;;;;;;;11.93;7.65;;;;;;;20.50;46.26;94362.22;5016889;28;20091;-78
2023/09/06 11:24:03;;;;;;;12.02;8.48;;;;;;;20.68;45.89;94364.41;5016620;28;20034;-77
2023/09/06 11:26:37;;;;;;;11.38;8.30;;;;;;;20.54;45.56;94362.25;5016028;28;20042;-79
2023/09/06 11:29:03;;;;;;;11.52;7.25;;;;;;;20.69;45.56;94357.84;5016750;28;20041;-79
2023/09/06 11:31:33;;;;;;;13.93;7.97;;;;;;;20.90;46.40;94371.72;5019305;28;20591;-77
2023/09/06 11:34:04;;;;;;;14.25;8.00;;;;;;;20.82;45.41;94367.31;5018107;28;20037;-78